Hikarimaru No.17 — JD2956 — position and weather

sailwx.info

Track history (hours):
 
Tides and Currents Weather Stations Pressure Air Temp Water Temp Dewpoint Dewpoint Depression Visibility Wind Speed Wind Dir Waves Ship Positions

Hikarimaru No.17

Last reported at 2014-Jul-22 16:33 UTC. Time now 2014-Jul-22 17:26 UTC.
Position N 34°30' E 135°04'.

Length 105 m; draft 6.5 m.

Type: Tanker. MMSI: 431000984.

Date/timePositionNaut miles runAvg speedWind from/ knotsBaromVisibWave heightAir tempDewpointWater temp
2014-Jul-22 16:33N 34°30' E 135°04'1313.1
2014-Jul-22 15:33N 34°18' E 134°59'1212.3
2014-Jul-22 14:33N 34°07' E 135°07'6 1.2
2014-Jul-22 09:33N 34°12' E 135°03'1111.1
2014-Jul-22 08:34N 34°23' E 134°60'1212.3
2014-Jul-22 07:33N 34°35' E 135°02'19 0.8
2014-Jul-21 08:22N 34°41' E 134°41'1214.3
2014-Jul-21 07:33N 34°37' E 134°54'1010.4
2014-Jul-21 06:33N 34°30' E 135°03'1414.2
2014-Jul-21 05:33N 34°16' E 134°59'11 2.0
2014-Jul-21 00:13N 34°08' E 135°07'5 7.5
2014-Jul-20 23:31N 34°13' E 135°08'0 0.0
2014-Jul-20 22:31N 34°13' E 135°08'0 0.0
2014-Jul-20 21:31N 34°13' E 135°08'0 0.0
2014-Jul-20 20:31N 34°13' E 135°08'0 0.0
2014-Jul-20 19:31N 34°13' E 135°08'0 0.0
2014-Jul-20 18:31N 34°13' E 135°08'0 0.0
2014-Jul-20 17:31N 34°13' E 135°08'0 0.0
2014-Jul-20 16:31N 34°13' E 135°08'0 0.0
2014-Jul-20 15:31N 34°13' E 135°08'0 0.0
2014-Jul-20 14:31N 34°13' E 135°08'0 0.0
2014-Jul-20 13:31N 34°13' E 135°08'0 0.0
2014-Jul-20 12:31N 34°13' E 135°08'0 0.0
2014-Jul-20 11:28N 34°13' E 135°08'0 0.0
2014-Jul-20 10:31N 34°13' E 135°08'0 0.0
2014-Jul-20 09:31N 34°13' E 135°08'0 0.0
2014-Jul-20 08:31N 34°13' E 135°08'0 0.0
2014-Jul-20 07:19N 34°13' E 135°08'0 0.0
2014-Jul-20 06:31N 34°13' E 135°08'0 0.0
2014-Jul-20 05:31N 34°13' E 135°08'0 0.0
2014-Jul-20 04:31N 34°13' E 135°08'0 0.0
2014-Jul-20 03:31N 34°13' E 135°08'0 0.0
2014-Jul-20 02:31N 34°13' E 135°08'0 0.0
2014-Jul-20 01:31N 34°13' E 135°08'0 0.0
2014-Jul-20 00:31N 34°13' E 135°08'0 0.0
2014-Jul-19 23:31N 34°13' E 135°08'0 0.0
2014-Jul-19 22:31N 34°13' E 135°08'0 0.0
2014-Jul-19 21:31N 34°13' E 135°08'0 0.0
2014-Jul-19 20:31N 34°13' E 135°08'0 0.0
2014-Jul-19 19:28N 34°13' E 135°08'0 0.0
2014-Jul-19 18:31N 34°13' E 135°08'0 0.0
2014-Jul-19 17:31N 34°13' E 135°08'0 0.0
2014-Jul-19 16:31N 34°13' E 135°08'0 0.0
2014-Jul-19 15:31N 34°13' E 135°08'0 0.0
2014-Jul-19 14:31N 34°13' E 135°08'0 0.0
2014-Jul-19 13:31N 34°13' E 135°08'0 0.0
2014-Jul-19 12:31N 34°13' E 135°08'0 0.0
2014-Jul-19 11:31N 34°13' E 135°08'0 0.0
2014-Jul-19 10:31N 34°13' E 135°08'0 0.0
2014-Jul-19 09:31N 34°13' E 135°08'0 0.0
2014-Jul-19 08:31N 34°13' E 135°08'0 0.0
2014-Jul-19 07:31N 34°13' E 135°08'0 0.0
2014-Jul-19 06:31N 34°13' E 135°08'0 0.0
2014-Jul-19 05:31N 34°13' E 135°08'0 0.0
2014-Jul-19 04:31N 34°13' E 135°08'0 0.0
2014-Jul-19 03:31N 34°13' E 135°08'0 0.0
2014-Jul-19 02:31N 34°13' E 135°08'0 0.0
2014-Jul-19 01:31N 34°13' E 135°08'0 0.0
2014-Jul-19 00:31N 34°13' E 135°08'0 0.0
2014-Jul-18 23:31N 34°13' E 135°08'0 0.0
2014-Jul-18 22:31N 34°13' E 135°08'0 0.0
2014-Jul-18 21:31N 34°13' E 135°08'0 0.0
2014-Jul-18 20:31N 34°13' E 135°08'0 0.0
2014-Jul-18 19:31N 34°13' E 135°08'0 0.0
2014-Jul-18 18:31N 34°13' E 135°08'0 0.0
2014-Jul-18 17:31N 34°13' E 135°08'0 0.0
2014-Jul-18 16:31N 34°13' E 135°08'0 0.0
2014-Jul-18 15:31N 34°13' E 135°08'0 0.0
2014-Jul-18 14:31N 34°13' E 135°08'0 0.0
2014-Jul-18 13:31N 34°13' E 135°08'0 0.0
2014-Jul-18 12:31N 34°13' E 135°08'0 0.0
2014-Jul-18 11:31N 34°13' E 135°08'0 0.0
2014-Jul-18 10:31N 34°13' E 135°08'0 0.0
2014-Jul-18 09:31N 34°13' E 135°08'0 0.0
2014-Jul-18 08:31N 34°13' E 135°08'0 0.0
2014-Jul-18 07:31N 34°13' E 135°08'7 7.0
2014-Jul-18 06:33N 34°07' E 135°04'7 0.6
2014-Jul-17 20:10N 34°01' E 135°03'710.8
2014-Jul-17 19:33N 34°07' E 135°03'1010.2
2014-Jul-17 18:33N 34°16' E 134°59'10 9.8
2014-Jul-17 17:30N 34°27' E 135°01'9 9.8
2014-Jul-17 16:34N 34°36' E 135°03'1210.6
2014-Jul-17 15:27N 34°33' E 134°49'5 0.2
2014-Jul-16 09:30N 34°36' E 134°54'9 9.4
2014-Jul-16 08:33N 34°35' E 135°05'1513.3
2014-Jul-16 07:27N 34°21' E 135°00'1111.9
2014-Jul-16 06:33N 34°10' E 134°60'8 0.9
2014-Jul-15 21:29N 34°03' E 135°03'7 7.6
2014-Jul-15 20:33N 34°09' E 135°07'0 0.0
2014-Jul-15 19:27N 34°09' E 135°07'0 0.0
2014-Jul-15 18:33N 34°09' E 135°07'0 0.0
2014-Jul-15 17:33N 34°09' E 135°07'0 0.0
2014-Jul-15 16:27N 34°09' E 135°07'0 0.1
2014-Jul-15 15:30N 34°09' E 135°07'0 0.0
2014-Jul-15 14:33N 34°09' E 135°07'0 0.0
2014-Jul-15 13:24N 34°09' E 135°07'0 0.0
2014-Jul-15 12:33N 34°09' E 135°07'0 0.1
2014-Jul-15 11:33N 34°09' E 135°07'0 0.0
2014-Jul-15 10:27N 34°09' E 135°07'2 0.2
2014-Jul-15 03:26N 34°07' E 135°07'2 2.3
2014-Jul-15 02:32N 34°09' E 135°08'0 0.1
2014-Jul-15 01:26N 34°09' E 135°08'0 0.0
2014-Jul-15 00:32N 34°09' E 135°08'0 0.0
2014-Jul-14 23:32N 34°09' E 135°08'0 0.0
2014-Jul-14 22:32N 34°09' E 135°08'0 0.0
2014-Jul-14 21:29N 34°09' E 135°08'0 0.0
2014-Jul-14 20:32N 34°09' E 135°08'0 0.0
2014-Jul-14 19:32N 34°09' E 135°08'0 0.0
2014-Jul-14 18:32N 34°09' E 135°08'0 0.0
2014-Jul-14 17:32N 34°09' E 135°08'0 0.0
2014-Jul-14 16:32N 34°09' E 135°08'0 0.0
2014-Jul-14 15:32N 34°09' E 135°08'0 0.0
2014-Jul-14 14:26N 34°09' E 135°08'0 0.0
2014-Jul-14 13:32N 34°09' E 135°08'0 0.0
2014-Jul-14 12:32N 34°09' E 135°08'0 0.0
2014-Jul-14 11:32N 34°09' E 135°08'0 0.0
2014-Jul-14 10:32N 34°09' E 135°08'0 0.0
2014-Jul-14 09:32N 34°09' E 135°08'8 7.9
2014-Jul-14 08:33N 34°14' E 135°01'1212.3
2014-Jul-14 07:33N 34°27' E 135°01'1010.4
2014-Jul-14 06:33N 34°36' E 134°57'5 0.3
2014-Jul-13 15:17N 34°38' E 134°51'1013.6
2014-Jul-13 14:33N 34°37' E 135°03'1212.3
2014-Jul-13 13:33N 34°34' E 135°17'6 1.1
2014-Jul-13 07:33N 34°33' E 135°25'8 8.1
2014-Jul-13 06:33N 34°31' E 135°15'1211.6
2014-Jul-13 05:29N 34°22' E 135°05'1010.4
2014-Jul-13 04:33N 34°13' E 134°60'12 1.8
2014-Jul-12 21:33N 34°01' E 135°03'9 8.6
2014-Jul-12 20:33N 34°09' E 135°07'0 0.0
2014-Jul-12 19:31N 34°09' E 135°07'0 0.0
2014-Jul-12 18:28N 34°09' E 135°07'0 0.1
2014-Jul-12 17:31N 34°09' E 135°07'  
Track history (hours):
 
Tides and Currents Weather Stations Pressure Air Temp Water Temp Dewpoint Dewpoint Depression Visibility Wind Speed Wind Dir Waves Ship Positions

Hikarimaru No.17

Last reported at 2014-Jul-22 16:33 UTC. Time now 2014-Jul-22 17:26 UTC.
Position N 34°30' E 135°04'.

Length 105 m; draft 6.5 m.

Type: Tanker. MMSI: 431000984.

Date/timePositionNaut miles runAvg speedWind from/ knotsBaromVisibWave heightAir tempDewpointWater temp
2014-Jul-22 16:33N 34°30' E 135°04'1313.1
2014-Jul-22 15:33N 34°18' E 134°59'1212.3
2014-Jul-22 14:33N 34°07' E 135°07'6 1.2
2014-Jul-22 09:33N 34°12' E 135°03'1111.1
2014-Jul-22 08:34N 34°23' E 134°60'1212.3
2014-Jul-22 07:33N 34°35' E 135°02'19 0.8
2014-Jul-21 08:22N 34°41' E 134°41'1214.3
2014-Jul-21 07:33N 34°37' E 134°54'1010.4
2014-Jul-21 06:33N 34°30' E 135°03'1414.2
2014-Jul-21 05:33N 34°16' E 134°59'11 2.0
2014-Jul-21 00:13N 34°08' E 135°07'5 7.5
2014-Jul-20 23:31N 34°13' E 135°08'0 0.0
2014-Jul-20 22:31N 34°13' E 135°08'0 0.0
2014-Jul-20 21:31N 34°13' E 135°08'0 0.0
2014-Jul-20 20:31N 34°13' E 135°08'0 0.0
2014-Jul-20 19:31N 34°13' E 135°08'0 0.0
2014-Jul-20 18:31N 34°13' E 135°08'0 0.0
2014-Jul-20 17:31N 34°13' E 135°08'0 0.0
2014-Jul-20 16:31N 34°13' E 135°08'0 0.0
2014-Jul-20 15:31N 34°13' E 135°08'0 0.0
2014-Jul-20 14:31N 34°13' E 135°08'0 0.0
2014-Jul-20 13:31N 34°13' E 135°08'0 0.0
2014-Jul-20 12:31N 34°13' E 135°08'0 0.0
2014-Jul-20 11:28N 34°13' E 135°08'0 0.0
2014-Jul-20 10:31N 34°13' E 135°08'0 0.0
2014-Jul-20 09:31N 34°13' E 135°08'0 0.0
2014-Jul-20 08:31N 34°13' E 135°08'0 0.0
2014-Jul-20 07:19N 34°13' E 135°08'0 0.0
2014-Jul-20 06:31N 34°13' E 135°08'0 0.0
2014-Jul-20 05:31N 34°13' E 135°08'0 0.0
2014-Jul-20 04:31N 34°13' E 135°08'0 0.0
2014-Jul-20 03:31N 34°13' E 135°08'0 0.0
2014-Jul-20 02:31N 34°13' E 135°08'0 0.0
2014-Jul-20 01:31N 34°13' E 135°08'0 0.0
2014-Jul-20 00:31N 34°13' E 135°08'0 0.0
2014-Jul-19 23:31N 34°13' E 135°08'0 0.0
2014-Jul-19 22:31N 34°13' E 135°08'0 0.0
2014-Jul-19 21:31N 34°13' E 135°08'0 0.0
2014-Jul-19 20:31N 34°13' E 135°08'0 0.0
2014-Jul-19 19:28N 34°13' E 135°08'0 0.0
2014-Jul-19 18:31N 34°13' E 135°08'0 0.0
2014-Jul-19 17:31N 34°13' E 135°08'0 0.0
2014-Jul-19 16:31N 34°13' E 135°08'0 0.0
2014-Jul-19 15:31N 34°13' E 135°08'0 0.0
2014-Jul-19 14:31N 34°13' E 135°08'0 0.0
2014-Jul-19 13:31N 34°13' E 135°08'0 0.0
2014-Jul-19 12:31N 34°13' E 135°08'0 0.0
2014-Jul-19 11:31N 34°13' E 135°08'0 0.0
2014-Jul-19 10:31N 34°13' E 135°08'0 0.0
2014-Jul-19 09:31N 34°13' E 135°08'0 0.0
2014-Jul-19 08:31N 34°13' E 135°08'0 0.0
2014-Jul-19 07:31N 34°13' E 135°08'0 0.0
2014-Jul-19 06:31N 34°13' E 135°08'0 0.0
2014-Jul-19 05:31N 34°13' E 135°08'0 0.0
2014-Jul-19 04:31N 34°13' E 135°08'0 0.0
2014-Jul-19 03:31N 34°13' E 135°08'0 0.0
2014-Jul-19 02:31N 34°13' E 135°08'0 0.0
2014-Jul-19 01:31N 34°13' E 135°08'0 0.0
2014-Jul-19 00:31N 34°13' E 135°08'0 0.0
2014-Jul-18 23:31N 34°13' E 135°08'0 0.0
2014-Jul-18 22:31N 34°13' E 135°08'0 0.0
2014-Jul-18 21:31N 34°13' E 135°08'0 0.0
2014-Jul-18 20:31N 34°13' E 135°08'0 0.0
2014-Jul-18 19:31N 34°13' E 135°08'0 0.0
2014-Jul-18 18:31N 34°13' E 135°08'0 0.0
2014-Jul-18 17:31N 34°13' E 135°08'0 0.0
2014-Jul-18 16:31N 34°13' E 135°08'0 0.0
2014-Jul-18 15:31N 34°13' E 135°08'0 0.0
2014-Jul-18 14:31N 34°13' E 135°08'0 0.0
2014-Jul-18 13:31N 34°13' E 135°08'0 0.0
2014-Jul-18 12:31N 34°13' E 135°08'0 0.0
2014-Jul-18 11:31N 34°13' E 135°08'0 0.0
2014-Jul-18 10:31N 34°13' E 135°08'0 0.0
2014-Jul-18 09:31N 34°13' E 135°08'0 0.0
2014-Jul-18 08:31N 34°13' E 135°08'0 0.0
2014-Jul-18 07:31N 34°13' E 135°08'7 7.0
2014-Jul-18 06:33N 34°07' E 135°04'7 0.6
2014-Jul-17 20:10N 34°01' E 135°03'710.8
2014-Jul-17 19:33N 34°07' E 135°03'1010.2
2014-Jul-17 18:33N 34°16' E 134°59'10 9.8
2014-Jul-17 17:30N 34°27' E 135°01'9 9.8
2014-Jul-17 16:34N 34°36' E 135°03'1210.6
2014-Jul-17 15:27N 34°33' E 134°49'5 0.2
2014-Jul-16 09:30N 34°36' E 134°54'9 9.4
2014-Jul-16 08:33N 34°35' E 135°05'1513.3
2014-Jul-16 07:27N 34°21' E 135°00'1111.9
2014-Jul-16 06:33N 34°10' E 134°60'8 0.9
2014-Jul-15 21:29N 34°03' E 135°03'7 7.6
2014-Jul-15 20:33N 34°09' E 135°07'0 0.0
2014-Jul-15 19:27N 34°09' E 135°07'0 0.0
2014-Jul-15 18:33N 34°09' E 135°07'0 0.0
2014-Jul-15 17:33N 34°09' E 135°07'0 0.0
2014-Jul-15 16:27N 34°09' E 135°07'0 0.1
2014-Jul-15 15:30N 34°09' E 135°07'0 0.0
2014-Jul-15 14:33N 34°09' E 135°07'0 0.0
2014-Jul-15 13:24N 34°09' E 135°07'0 0.0
2014-Jul-15 12:33N 34°09' E 135°07'0 0.1
2014-Jul-15 11:33N 34°09' E 135°07'0 0.0
2014-Jul-15 10:27N 34°09' E 135°07'2 0.2
2014-Jul-15 03:26N 34°07' E 135°07'2 2.3
2014-Jul-15 02:32N 34°09' E 135°08'0 0.1
2014-Jul-15 01:26N 34°09' E 135°08'0 0.0
2014-Jul-15 00:32N 34°09' E 135°08'0 0.0
2014-Jul-14 23:32N 34°09' E 135°08'0 0.0
2014-Jul-14 22:32N 34°09' E 135°08'0 0.0
2014-Jul-14 21:29N 34°09' E 135°08'0 0.0
2014-Jul-14 20:32N 34°09' E 135°08'0 0.0
2014-Jul-14 19:32N 34°09' E 135°08'0 0.0
2014-Jul-14 18:32N 34°09' E 135°08'0 0.0
2014-Jul-14 17:32N 34°09' E 135°08'0 0.0
2014-Jul-14 16:32N 34°09' E 135°08'0 0.0
2014-Jul-14 15:32N 34°09' E 135°08'0 0.0
2014-Jul-14 14:26N 34°09' E 135°08'0 0.0
2014-Jul-14 13:32N 34°09' E 135°08'0 0.0
2014-Jul-14 12:32N 34°09' E 135°08'0 0.0
2014-Jul-14 11:32N 34°09' E 135°08'0 0.0
2014-Jul-14 10:32N 34°09' E 135°08'0 0.0
2014-Jul-14 09:32N 34°09' E 135°08'8 7.9
2014-Jul-14 08:33N 34°14' E 135°01'1212.3
2014-Jul-14 07:33N 34°27' E 135°01'1010.4
2014-Jul-14 06:33N 34°36' E 134°57'5 0.3
2014-Jul-13 15:17N 34°38' E 134°51'1013.6
2014-Jul-13 14:33N 34°37' E 135°03'1212.3
2014-Jul-13 13:33N 34°34' E 135°17'6 1.1
2014-Jul-13 07:33N 34°33' E 135°25'8 8.1
2014-Jul-13 06:33N 34°31' E 135°15'1211.6
2014-Jul-13 05:29N 34°22' E 135°05'1010.4
2014-Jul-13 04:33N 34°13' E 134°60'12 1.8
2014-Jul-12 21:33N 34°01' E 135°03'9 8.6
2014-Jul-12 20:33N 34°09' E 135°07'0 0.0
2014-Jul-12 19:31N 34°09' E 135°07'0 0.0
2014-Jul-12 18:28N 34°09' E 135°07'0 0.1
2014-Jul-12 17:31N 34°09' E 135°07'  

Dump ship's entire track history